createdAt,value
2018-12-29T00:02:10.524Z,8.77
2018-12-29T00:04:41.089Z,7.47
2018-12-29T00:07:11.228Z,8.97
2018-12-29T00:09:42.486Z,10.03
2018-12-29T00:12:14.683Z,8.47
2018-12-29T00:14:45.300Z,8.30
2018-12-29T00:17:17.347Z,8.80
2018-12-29T00:19:48.263Z,8.43
2018-12-29T00:22:18.372Z,8.23
2018-12-29T00:24:48.330Z,9.87
2018-12-29T00:27:19.512Z,8.87
2018-12-29T00:29:49.373Z,8.80
2018-12-29T00:32:21.798Z,8.40
2018-12-29T00:34:53.787Z,8.73
2018-12-29T00:37:23.746Z,10.37
2018-12-29T00:39:53.790Z,9.57
2018-12-29T00:42:25.802Z,9.53
2018-12-29T00:45:02.431Z,9.83
2018-12-29T00:47:29.685Z,9.10
2018-12-29T00:49:59.487Z,9.80
2018-12-29T00:52:30.509Z,9.60
2018-12-29T00:55:00.446Z,9.43
2018-12-29T00:57:31.587Z,9.80
2018-12-29T01:00:02.183Z,10.37
2018-12-29T01:02:32.595Z,8.47
2018-12-29T01:05:03.519Z,7.90
2018-12-29T01:07:35.288Z,9.73
2018-12-29T01:10:07.871Z,9.80
2018-12-29T01:12:37.718Z,9.67
2018-12-29T01:15:10.814Z,8.63
2018-12-29T01:17:40.679Z,10.87
2018-12-29T01:20:11.456Z,10.53
2018-12-29T01:22:42.116Z,10.10
2018-12-29T01:25:14.244Z,12.90
2018-12-29T01:27:44.424Z,8.17
2018-12-29T01:30:15.075Z,10.10
2018-12-29T01:32:45.358Z,9.20
2018-12-29T01:35:17.104Z,10.10
2018-12-29T01:37:47.758Z,9.77
2018-12-29T01:40:18.354Z,10.23
2018-12-29T01:42:48.418Z,11.23
2018-12-29T01:45:19.257Z,10.57
2018-12-29T01:47:50.997Z,11.60
2018-12-29T01:50:20.917Z,11.00
2018-12-29T01:52:50.901Z,10.70
2018-12-29T01:55:21.074Z,10.23
2018-12-29T01:57:52.212Z,11.10
2018-12-29T02:00:23.320Z,10.27
2018-12-29T02:02:53.649Z,11.17
2018-12-29T02:05:23.597Z,11.40
2018-12-29T02:07:55.219Z,10.90
2018-12-29T02:10:25.349Z,12.33
2018-12-29T02:12:58.206Z,10.87
2018-12-29T02:15:30.653Z,12.67
2018-12-29T02:18:10.227Z,10.83
2018-12-29T02:20:42.392Z,11.93
2018-12-29T02:23:14.039Z,10.40
2018-12-29T02:25:44.753Z,11.00
2018-12-29T02:28:16.632Z,13.93
2018-12-29T02:30:47.801Z,11.83
2018-12-29T02:33:21.272Z,11.47
2018-12-29T02:35:51.645Z,12.57
2018-12-29T02:38:22.730Z,11.50
2018-12-29T02:40:52.907Z,10.33
2018-12-29T02:43:27.249Z,11.60
2018-12-29T02:46:02.148Z,14.33
2018-12-29T02:48:32.305Z,13.10
2018-12-29T02:51:02.394Z,13.47
2018-12-29T02:53:32.809Z,12.70
2018-12-29T02:56:03.285Z,12.00
2018-12-29T02:58:35.189Z,12.13
2018-12-29T03:01:06.654Z,12.97
2018-12-29T03:03:36.842Z,13.27
2018-12-29T03:06:06.704Z,13.87
2018-12-29T03:08:40.043Z,14.90
2018-12-29T03:11:09.818Z,11.77
2018-12-29T03:13:47.055Z,14.60
2018-12-29T03:16:20.622Z,13.53
2018-12-29T03:18:52.206Z,15.17
2018-12-29T03:21:22.345Z,15.57
2018-12-29T03:23:53.803Z,13.43
2018-12-29T03:26:24.631Z,15.20
2018-12-29T03:28:55.124Z,15.53
2018-12-29T03:31:27.350Z,14.63
2018-12-29T03:33:57.743Z,15.53
2018-12-29T03:36:28.725Z,15.70
2018-12-29T03:39:00.589Z,16.70
2018-12-29T03:41:35.059Z,13.03
2018-12-29T03:44:05.587Z,16.10
2018-12-29T03:46:36.777Z,15.97
2018-12-29T03:49:10.557Z,16.30
2018-12-29T03:51:43.616Z,14.33
2018-12-29T03:54:15.580Z,15.87
2018-12-29T03:56:51.642Z,12.77
2018-12-29T03:59:22.693Z,14.60
2018-12-29T04:01:54.685Z,15.47
2018-12-29T04:04:25.884Z,15.03
2018-12-29T04:06:58.006Z,14.03
2018-12-29T04:09:36.777Z,15.10
2018-12-29T04:12:28.350Z,15.03
2018-12-29T04:15:00.575Z,15.23
2018-12-29T04:17:34.293Z,15.47
2018-12-29T04:20:05.017Z,15.17
2018-12-29T04:22:35.549Z,16.80
2018-12-29T04:25:09.417Z,14.47
2018-12-29T04:27:43.558Z,15.03
2018-12-29T04:30:14.394Z,13.67
2018-12-29T04:32:51.530Z,15.67
2018-12-29T04:35:23.221Z,14.17
2018-12-29T04:37:55.960Z,16.73
2018-12-29T04:40:28.322Z,15.47
2018-12-29T04:42:58.967Z,12.60
2018-12-29T04:45:31.925Z,15.93
2018-12-29T04:48:04.777Z,14.30
2018-12-29T04:50:35.292Z,13.03
2018-12-29T04:53:05.074Z,11.27
2018-12-29T04:55:35.543Z,12.63
2018-12-29T04:58:05.874Z,15.10
2018-12-29T05:00:37.770Z,13.77
2018-12-29T05:03:08.028Z,14.00
2018-12-29T05:05:38.164Z,15.20
2018-12-29T05:08:08.664Z,14.53
2018-12-29T05:10:38.775Z,13.43
2018-12-29T05:13:09.432Z,11.87
2018-12-29T05:15:40.078Z,12.43
2018-12-29T05:18:10.510Z,13.43
2018-12-29T05:20:41.915Z,16.13
2018-12-29T05:23:11.849Z,12.30
2018-12-29T05:25:41.919Z,13.27
2018-12-29T05:28:13.561Z,13.77
2018-12-29T05:30:48.045Z,12.93
2018-12-29T05:33:18.357Z,13.00
2018-12-29T05:35:48.494Z,14.97
2018-12-29T05:38:19.954Z,14.70
2018-12-29T05:40:49.841Z,12.50
2018-12-29T05:43:20.762Z,12.27
2018-12-29T05:45:52.813Z,13.67
2018-12-29T05:48:24.704Z,13.50
2018-12-29T05:50:55.314Z,15.67
2018-12-29T05:53:25.338Z,11.90
2018-12-29T05:55:55.935Z,12.77
2018-12-29T05:58:26.813Z,11.77
2018-12-29T06:00:59.027Z,11.10
2018-12-29T06:03:30.170Z,12.30
2018-12-29T06:06:06.201Z,11.37
2018-12-29T06:08:37.821Z,11.60
2018-12-29T06:11:09.705Z,10.83
2018-12-29T06:13:39.777Z,9.63
2018-12-29T06:16:10.435Z,10.70
2018-12-29T06:18:43.921Z,11.73
2018-12-29T06:21:13.831Z,11.60
2018-12-29T06:23:44.034Z,10.73
2018-12-29T06:26:13.830Z,11.27
2018-12-29T06:28:46.344Z,10.07
2018-12-29T06:31:16.481Z,8.97
2018-12-29T06:33:46.324Z,11.47
2018-12-29T06:36:20.292Z,11.37
2018-12-29T06:38:51.481Z,8.90
2018-12-29T06:41:21.510Z,11.07
2018-12-29T06:43:51.371Z,11.27
2018-12-29T06:46:21.161Z,12.00
2018-12-29T06:48:51.302Z,11.37
2018-12-29T06:51:21.965Z,11.40
2018-12-29T06:53:53.133Z,10.83
2018-12-29T06:56:22.940Z,9.97
2018-12-29T06:58:53.092Z,11.07
2018-12-29T07:01:23.558Z,9.67
2018-12-29T07:03:55.293Z,9.83
2018-12-29T07:06:25.349Z,11.07
2018-12-29T07:08:57.380Z,11.47
2018-12-29T07:11:28.125Z,10.93
2018-12-29T07:14:02.101Z,9.57
2018-12-29T07:16:34.720Z,10.33
2018-12-29T07:19:06.878Z,10.20
2018-12-29T07:21:37.487Z,9.77
2018-12-29T07:24:11.654Z,11.37
2018-12-29T07:26:42.309Z,10.40
2018-12-29T07:29:12.862Z,9.70
2018-12-29T07:31:43.864Z,10.43
2018-12-29T07:34:13.998Z,10.20
2018-12-29T07:36:46.180Z,9.57
2018-12-29T07:39:20.615Z,8.57
2018-12-29T07:41:55.097Z,9.67
2018-12-29T07:44:41.105Z,9.33
2018-12-29T07:47:11.799Z,9.43
2018-12-29T07:53:23.905Z,8.03
2018-12-29T07:55:54.172Z,9.77
2018-12-29T07:58:25.631Z,9.03
2018-12-29T08:00:57.757Z,8.67
2018-12-29T08:03:31.913Z,10.40
2018-12-29T08:06:02.095Z,9.37
2018-12-29T08:08:32.257Z,11.10
2018-12-29T08:11:06.810Z,10.10
2018-12-29T08:13:36.621Z,11.07
2018-12-29T08:16:10.420Z,14.13
2018-12-29T08:18:41.887Z,15.20
2018-12-29T08:21:11.581Z,14.73
2018-12-29T08:23:42.534Z,13.50
2018-12-29T08:26:12.763Z,12.10
2018-12-29T08:28:42.981Z,12.20
2018-12-29T08:31:16.665Z,11.13
2018-12-29T08:33:55.297Z,13.00
2018-12-29T08:36:35.431Z,10.43
2018-12-29T08:39:08.340Z,9.70
2018-12-29T08:41:40.487Z,10.83
2018-12-29T08:44:35.889Z,10.70
2018-12-29T08:47:08.287Z,11.37
2018-12-29T08:49:38.180Z,9.43
2018-12-29T08:52:14.994Z,8.70
2018-12-29T08:54:47.387Z,9.57
2018-12-29T08:57:22.867Z,8.57
2018-12-29T08:59:54.434Z,8.63
2018-12-29T09:03:12.065Z,7.60
2018-12-29T09:05:54.036Z,7.67
2018-12-29T09:08:33.548Z,7.40
2018-12-29T09:11:14.445Z,8.60
2018-12-29T09:13:57.558Z,7.20
2018-12-29T09:16:36.835Z,6.37
2018-12-29T09:19:16.149Z,7.83
2018-12-29T09:22:09.895Z,5.97
2018-12-29T09:24:48.432Z,6.73
2018-12-29T09:27:25.687Z,7.10
2018-12-29T09:30:09.914Z,6.40
2018-12-29T09:33:12.696Z,7.63
2018-12-29T09:35:42.498Z,7.67
2018-12-29T09:38:15.604Z,6.20
2018-12-29T09:40:46.984Z,6.87
2018-12-29T09:43:16.827Z,5.70
2018-12-29T09:45:48.397Z,7.00
2018-12-29T09:48:22.069Z,7.30
2018-12-29T09:50:54.596Z,6.17
2018-12-29T09:53:25.681Z,8.97
2018-12-29T09:55:55.725Z,6.13
2018-12-29T09:58:28.622Z,7.80
2018-12-29T10:01:02.124Z,8.33
2018-12-29T10:03:31.979Z,7.03
2018-12-29T10:06:05.780Z,8.20
2018-12-29T10:08:36.988Z,7.83
2018-12-29T10:11:09.499Z,7.33
2018-12-29T10:13:41.747Z,8.53
2018-12-29T10:16:13.885Z,6.90
2018-12-29T10:18:45.974Z,6.57
2018-12-29T10:21:18.468Z,6.80
2018-12-29T10:23:49.609Z,5.43
2018-12-29T10:26:20.359Z,6.63
2018-12-29T10:28:50.501Z,6.60
2018-12-29T10:31:25.602Z,6.63
2018-12-29T10:33:57.393Z,6.27
2018-12-29T10:36:30.061Z,4.93
2018-12-29T10:38:59.829Z,4.70
2018-12-29T10:41:31.008Z,3.93
2018-12-29T10:44:03.020Z,5.10
2018-12-29T10:46:34.987Z,4.03
2018-12-29T10:49:07.193Z,4.43
2018-12-29T10:51:38.914Z,4.80
2018-12-29T10:54:10.941Z,4.17
2018-12-29T10:56:42.480Z,5.50
2018-12-29T10:59:13.828Z,4.90
2018-12-29T11:01:43.873Z,4.10
2018-12-29T11:04:15.120Z,4.43
2018-12-29T11:06:45.391Z,4.30
2018-12-29T11:09:15.768Z,4.83
2018-12-29T11:11:45.855Z,4.67
2018-12-29T11:14:17.336Z,4.83
2018-12-29T11:16:48.576Z,5.43
2018-12-29T11:19:27.326Z,6.40
2018-12-29T11:21:52.325Z,5.63
2018-12-29T11:24:33.784Z,4.63
2018-12-29T11:27:03.981Z,5.63
2018-12-29T11:29:50.920Z,6.73
2018-12-29T11:32:20.686Z,5.93
2018-12-29T11:34:50.643Z,5.67
2018-12-29T11:37:23.401Z,6.23
2018-12-29T11:39:53.634Z,6.03
2018-12-29T11:42:23.310Z,5.03
2018-12-29T11:44:53.007Z,5.33
2018-12-29T11:47:22.744Z,6.10
2018-12-29T11:49:53.004Z,5.47
2018-12-29T11:52:24.436Z,4.73
2018-12-29T11:54:54.131Z,5.97
2018-12-29T11:57:23.850Z,4.83
2018-12-29T11:59:53.555Z,5.50
2018-12-29T12:02:24.608Z,5.57
2018-12-29T12:04:54.738Z,7.33
2018-12-29T12:07:24.468Z,6.47
2018-12-29T12:09:54.239Z,6.53
2018-12-29T12:12:25.142Z,7.37
2018-12-29T12:14:55.123Z,8.37
2018-12-29T12:17:25.143Z,7.87
2018-12-29T12:19:55.192Z,7.73
2018-12-29T12:22:24.882Z,12.50
2018-12-29T12:24:54.578Z,9.30
2018-12-29T12:27:25.727Z,11.33
2018-12-29T12:29:55.912Z,9.90
2018-12-29T12:32:26.966Z,12.53
2018-12-29T12:34:56.881Z,11.47
2018-12-29T12:37:26.593Z,10.93
2018-12-29T12:39:56.590Z,10.53
2018-12-29T12:42:27.447Z,10.77
2018-12-29T12:44:57.437Z,11.63
2018-12-29T12:47:27.891Z,11.47
2018-12-29T12:49:58.428Z,11.70
2018-12-29T12:52:28.612Z,10.70
2018-12-29T12:54:59.464Z,10.80
2018-12-29T12:57:30.975Z,10.33
2018-12-29T13:00:03.672Z,11.20
2018-12-29T13:02:50.796Z,10.90
2018-12-29T13:05:25.378Z,11.83
2018-12-29T13:07:55.423Z,9.70
2018-12-29T13:10:27.544Z,9.97
2018-12-29T13:12:58.376Z,10.47
2018-12-29T13:15:36.130Z,13.00
2018-12-29T13:18:12.713Z,8.90
2018-12-29T13:20:39.357Z,9.03
2018-12-29T13:23:10.533Z,7.87
2018-12-29T13:26:28.652Z,9.23
2018-12-29T13:29:21.550Z,8.67
2018-12-29T13:32:31.271Z,9.60
2018-12-29T13:35:03.894Z,11.80
2018-12-29T13:40:51.907Z,9.57
2018-12-29T13:43:36.758Z,9.80
2018-12-29T13:46:08.085Z,9.93
2018-12-29T13:49:01.445Z,10.40
2018-12-29T13:51:53.356Z,8.23
2018-12-29T13:54:27.998Z,7.20
2018-12-29T13:56:58.651Z,6.97
2018-12-29T13:59:28.349Z,11.03
2018-12-29T14:01:58.073Z,7.37
2018-12-29T14:04:28.991Z,7.20
2018-12-29T14:07:01.407Z,7.93
2018-12-29T14:09:31.098Z,9.03
2018-12-29T14:12:01.232Z,8.83
2018-12-29T14:14:32.791Z,10.13
2018-12-29T14:17:04.507Z,7.70
2018-12-29T14:19:38.220Z,9.97
2018-12-29T14:22:09.000Z,10.17
2018-12-29T14:24:39.603Z,9.13
2018-12-29T14:27:09.472Z,9.40
2018-12-29T14:29:39.329Z,9.50
2018-12-29T14:32:09.270Z,8.80
2018-12-29T14:34:39.770Z,10.00
2018-12-29T14:37:10.103Z,8.40
2018-12-29T14:39:40.018Z,10.33
2018-12-29T14:42:10.089Z,10.30
2018-12-29T14:44:40.063Z,8.57
2018-12-29T14:47:10.066Z,9.63
2018-12-29T14:49:40.345Z,10.30
2018-12-29T14:52:10.229Z,9.17
2018-12-29T14:54:42.574Z,9.23
2018-12-29T14:57:13.167Z,10.60
2018-12-29T14:59:43.250Z,10.73
2018-12-29T15:02:13.641Z,6.60
2018-12-29T15:04:44.258Z,6.87
2018-12-29T15:07:15.941Z,6.00
2018-12-29T15:09:45.868Z,6.87
2018-12-29T15:12:16.902Z,5.90
2018-12-29T15:14:46.850Z,6.20
2018-12-29T15:17:17.090Z,5.40
2018-12-29T15:19:46.841Z,4.87
2018-12-29T15:22:17.965Z,5.03
2018-12-29T15:24:48.736Z,5.43
2018-12-29T15:27:18.681Z,5.47
2018-12-29T15:29:48.683Z,5.07
2018-12-29T15:32:20.426Z,5.10
2018-12-29T15:34:50.293Z,5.17
2018-12-29T15:37:23.375Z,5.10
2018-12-29T15:39:53.988Z,5.23
2018-12-29T15:42:27.328Z,6.23
2018-12-29T15:44:58.955Z,5.07
2018-12-29T15:47:33.887Z,5.40
2018-12-29T15:50:08.912Z,7.70
2018-12-29T15:52:44.839Z,5.63
2018-12-29T15:55:33.058Z,6.67
2018-12-29T15:58:08.011Z,5.33
2018-12-29T16:00:41.698Z,4.80
2018-12-29T16:03:16.007Z,3.40
2018-12-29T16:05:50.312Z,4.40
2018-12-29T16:08:26.722Z,3.67
2018-12-29T16:10:56.764Z,4.37
2018-12-29T16:13:27.774Z,3.83
2018-12-29T16:15:57.701Z,3.60
2018-12-29T16:18:31.781Z,2.93
2018-12-29T16:21:22.083Z,3.60
2018-12-29T16:24:02.909Z,3.07
2018-12-29T16:26:37.434Z,3.10
2018-12-29T16:29:24.823Z,2.90
2018-12-29T16:32:03.281Z,3.00
2018-12-29T16:34:37.057Z,4.20
2018-12-29T16:37:13.849Z,4.10
2018-12-29T16:39:46.264Z,3.10
2018-12-29T16:45:12.576Z,3.50
2018-12-29T16:48:06.297Z,5.80
2018-12-29T16:50:39.209Z,3.30
2018-12-29T16:53:34.006Z,3.23
2018-12-29T16:56:15.130Z,5.47
2018-12-29T16:59:11.824Z,3.90
2018-12-29T17:01:54.249Z,3.17
2018-12-29T17:04:49.341Z,4.13
2018-12-29T17:07:20.849Z,3.87
2018-12-29T17:10:15.913Z,4.07
2018-12-29T17:12:48.287Z,3.03
2018-12-29T17:15:22.240Z,2.93
2018-12-29T17:17:59.994Z,4.13
2018-12-29T17:20:54.381Z,3.93
2018-12-29T17:23:24.320Z,4.43
2018-12-29T17:28:56.877Z,5.00
2018-12-29T17:31:31.159Z,3.60
2018-12-29T17:34:14.805Z,5.13
2018-12-29T17:36:49.061Z,4.67
2018-12-29T17:39:22.948Z,4.53
2018-12-29T17:41:59.386Z,4.57
2018-12-29T17:44:56.338Z,5.13
2018-12-29T17:47:40.534Z,5.33
2018-12-29T17:50:32.926Z,4.20
2018-12-29T17:53:20.039Z,5.03
2018-12-29T17:56:21.040Z,5.03
2018-12-29T17:58:58.015Z,4.63
2018-12-29T18:01:36.140Z,4.97
2018-12-29T18:04:19.305Z,4.50
2018-12-29T18:07:13.246Z,5.20
2018-12-29T18:10:12.927Z,5.37
2018-12-29T18:12:49.227Z,5.53
2018-12-29T18:15:25.288Z,4.60
2018-12-29T18:18:05.034Z,5.00
2018-12-29T18:23:32.247Z,4.67
2018-12-29T18:26:02.243Z,5.50
2018-12-29T18:28:32.100Z,6.50
2018-12-29T18:31:06.258Z,5.73
2018-12-29T18:33:51.309Z,5.87
2018-12-29T18:36:23.540Z,5.23
2018-12-29T18:38:54.463Z,4.53
2018-12-29T18:41:30.099Z,5.03
2018-12-29T18:44:01.619Z,3.97
2018-12-29T18:46:33.406Z,4.03
2018-12-29T18:49:04.961Z,5.73
2018-12-29T18:51:41.151Z,3.80
2018-12-29T18:54:11.371Z,4.43
2018-12-29T18:56:45.598Z,4.27
2018-12-29T18:59:15.388Z,5.03
2018-12-29T19:01:45.758Z,5.40
2018-12-29T19:04:17.559Z,6.10
2018-12-29T19:06:50.120Z,4.97
2018-12-29T19:09:38.478Z,5.03
2018-12-29T19:12:11.423Z,4.73
2018-12-29T19:14:44.583Z,7.33
2018-12-29T19:17:15.761Z,5.53
2018-12-29T19:19:54.992Z,3.30
2018-12-29T19:22:30.123Z,3.43
2018-12-29T19:25:05.927Z,6.40
2018-12-29T19:27:40.149Z,3.80
2018-12-29T19:30:11.043Z,4.93
2018-12-29T19:32:46.123Z,4.50
2018-12-29T19:35:16.077Z,5.03
2018-12-29T19:37:54.425Z,3.57
2018-12-29T19:40:27.214Z,5.97
2018-12-29T19:43:04.401Z,5.70
2018-12-29T19:45:39.902Z,4.37
2018-12-29T19:48:13.772Z,3.97
2018-12-29T19:50:43.679Z,6.03
2018-12-29T19:53:16.257Z,6.00
2018-12-29T19:55:46.851Z,4.47
2018-12-29T19:58:18.613Z,5.80
2018-12-29T20:00:50.068Z,5.63
2018-12-29T20:03:22.807Z,4.70
2018-12-29T20:05:55.244Z,5.33
2018-12-29T20:08:36.988Z,4.87
2018-12-29T20:11:06.904Z,3.93
2018-12-29T20:13:37.034Z,5.40
2018-12-29T20:16:26.494Z,5.03
2018-12-29T20:19:06.477Z,5.03
2018-12-29T20:21:36.976Z,4.37
2018-12-29T20:24:20.203Z,4.63
2018-12-29T20:26:52.298Z,4.07
2018-12-29T20:29:24.221Z,4.50
2018-12-29T20:31:56.896Z,3.63
2018-12-29T20:34:30.114Z,4.83
2018-12-29T20:37:00.178Z,5.73
2018-12-29T20:39:30.446Z,6.00
2018-12-29T20:42:00.290Z,3.03
2018-12-29T20:44:31.111Z,6.23
2018-12-29T20:47:09.478Z,3.97
2018-12-29T20:49:43.771Z,5.50
2018-12-29T20:52:15.119Z,4.40
2018-12-29T20:54:44.951Z,4.33
2018-12-29T20:57:15.286Z,5.20
2018-12-29T20:59:45.173Z,4.77
2018-12-29T21:02:15.020Z,5.73
2018-12-29T21:04:44.879Z,6.43
2018-12-29T21:07:16.396Z,5.03
2018-12-29T21:09:46.715Z,6.23
2018-12-29T21:12:16.577Z,5.80
2018-12-29T21:14:48.163Z,4.17
2018-12-29T21:17:18.080Z,4.67
2018-12-29T21:19:48.510Z,5.07
2018-12-29T21:22:20.592Z,3.90
2018-12-29T21:24:50.423Z,6.17
2018-12-29T21:27:20.780Z,6.33
2018-12-29T21:29:51.106Z,5.40
2018-12-29T21:32:21.328Z,5.47
2018-12-29T21:34:51.468Z,4.90
2018-12-29T21:37:21.753Z,4.93
2018-12-29T21:39:52.313Z,5.63
2018-12-29T21:42:23.050Z,4.60
2018-12-29T21:44:52.897Z,4.87
2018-12-29T21:47:24.635Z,5.87
2018-12-29T21:49:54.540Z,5.17
2018-12-29T21:52:24.479Z,4.47
2018-12-29T21:54:54.511Z,5.67
2018-12-29T21:57:25.442Z,4.23
2018-12-29T21:59:55.270Z,5.53
2018-12-29T22:02:25.130Z,5.43
2018-12-29T22:04:55.053Z,4.27
2018-12-29T22:07:25.005Z,5.67
2018-12-29T22:09:54.975Z,5.13
2018-12-29T22:12:24.881Z,4.73
2018-12-29T22:14:54.880Z,5.47
2018-12-29T22:17:25.663Z,7.17
2018-12-29T22:19:55.577Z,5.67
2018-12-29T22:22:25.412Z,5.20
2018-12-29T22:24:55.190Z,5.33
2018-12-29T22:27:24.951Z,6.23
2018-12-29T22:29:54.896Z,7.27
2018-12-29T22:32:25.033Z,4.40
2018-12-29T22:34:55.150Z,4.50
2018-12-29T22:37:25.080Z,4.20
2018-12-29T22:39:55.000Z,5.27
2018-12-29T22:42:24.905Z,4.90
2018-12-29T22:44:54.942Z,3.93
2018-12-29T22:47:26.818Z,4.17
2018-12-29T22:49:56.671Z,4.53
2018-12-29T22:52:26.492Z,4.23
2018-12-29T22:54:57.062Z,4.37
2018-12-29T22:57:27.194Z,7.03
2018-12-29T22:59:57.350Z,4.53
2018-12-29T23:02:27.444Z,4.70
2018-12-29T23:04:57.248Z,3.67
2018-12-29T23:07:27.200Z,4.57
2018-12-29T23:10:01.249Z,4.53
2018-12-29T23:12:31.596Z,4.13
2018-12-29T23:15:02.118Z,4.17
2018-12-29T23:17:32.103Z,3.70
2018-12-29T23:20:02.599Z,7.13
2018-12-29T23:22:33.013Z,4.23
2018-12-29T23:25:02.872Z,5.07
2018-12-29T23:27:33.291Z,4.00
2018-12-29T23:30:03.637Z,4.00
2018-12-29T23:32:33.967Z,3.73
2018-12-29T23:35:04.503Z,5.27
2018-12-29T23:37:34.205Z,6.00
2018-12-29T23:40:05.244Z,5.72
2018-12-29T23:42:35.485Z,3.77
2018-12-29T23:45:08.403Z,6.50
2018-12-29T23:47:38.639Z,4.40
2018-12-29T23:50:09.541Z,4.67
2018-12-29T23:52:40.955Z,4.77
2018-12-29T23:55:10.848Z,4.10
2018-12-29T23:57:42.229Z,3.67
